sensor_id;sensor_type;location;lat;lon;timestamp;temperature;humidity
20714;DHT22;10518;50.742;4.226;2023-10-19T00:01:10;17.10;99.90
20714;DHT22;10518;50.742;4.226;2023-10-19T00:03:37;17.00;99.90
20714;DHT22;10518;50.742;4.226;2023-10-19T00:06:03;17.10;99.90
20714;DHT22;10518;50.742;4.226;2023-10-19T00:08:30;17.20;99.90
20714;DHT22;10518;50.742;4.226;2023-10-19T00:11:07;17.20;99.90
20714;DHT22;10518;50.742;4.226;2023-10-19T00:13:33;17.40;99.90
20714;DHT22;10518;50.742;4.226;2023-10-19T00:16:01;17.50;99.90
20714;DHT22;10518;50.742;4.226;2023-10-19T00:18:32;17.50;99.90
20714;DHT22;10518;50.742;4.226;2023-10-19T00:21:00;17.40;99.90
20714;DHT22;10518;50.742;4.226;2023-10-19T00:23:36;17.30;99.90
20714;DHT22;10518;50.742;4.226;2023-10-19T00:26:05;17.20;99.90
20714;DHT22;10518;50.742;4.226;2023-10-19T00:28:35;17.40;99.90
20714;DHT22;10518;50.742;4.226;2023-10-19T00:31:01;17.50;99.90
20714;DHT22;10518;50.742;4.226;2023-10-19T00:33:34;17.30;99.90
20714;DHT22;10518;50.742;4.226;2023-10-19T00:36:04;17.30;99.90
20714;DHT22;10518;50.742;4.226;2023-10-19T00:38:37;17.10;99.90
20714;DHT22;10518;50.742;4.226;2023-10-19T00:41:04;17.20;99.90
20714;DHT22;10518;50.742;4.226;2023-10-19T00:43:38;17.10;99.90
20714;DHT22;10518;50.742;4.226;2023-10-19T00:46:09;17.00;99.90
20714;DHT22;10518;50.742;4.226;2023-10-19T00:48:57;17.10;99.90
20714;DHT22;10518;50.742;4.226;2023-10-19T00:53:59;17.20;99.90
20714;DHT22;10518;50.742;4.226;2023-10-19T00:56:29;17.30;99.90
20714;DHT22;10518;50.742;4.226;2023-10-19T00:58:58;17.20;99.90
20714;DHT22;10518;50.742;4.226;2023-10-19T01:01:54;17.10;99.90
20714;DHT22;10518;50.742;4.226;2023-10-19T01:04:24;17.30;99.90
20714;DHT22;10518;50.742;4.226;2023-10-19T01:06:51;17.20;99.90
20714;DHT22;10518;50.742;4.226;2023-10-19T01:09:55;17.20;99.90
20714;DHT22;10518;50.742;4.226;2023-10-19T01:12:23;17.30;99.90
20714;DHT22;10518;50.742;4.226;2023-10-19T01:15:10;17.20;99.90
20714;DHT22;10518;50.742;4.226;2023-10-19T01:17:48;17.20;99.90
20714;DHT22;10518;50.742;4.226;2023-10-19T01:20:20;17.20;99.90
20714;DHT22;10518;50.742;4.226;2023-10-19T01:23:06;17.10;99.90
20714;DHT22;10518;50.742;4.226;2023-10-19T01:28:42;17.10;99.90
20714;DHT22;10518;50.742;4.226;2023-10-19T01:31:12;17.00;99.90
20714;DHT22;10518;50.742;4.226;2023-10-19T01:34:00;17.10;99.90
20714;DHT22;10518;50.742;4.226;2023-10-19T01:36:32;17.00;99.90
20714;DHT22;10518;50.742;4.226;2023-10-19T01:39:07;17.00;99.90
20714;DHT22;10518;50.742;4.226;2023-10-19T01:41:37;16.80;99.90
20714;DHT22;10518;50.742;4.226;2023-10-19T01:44:03;16.90;99.90
20714;DHT22;10518;50.742;4.226;2023-10-19T01:46:33;16.90;99.90
20714;DHT22;10518;50.742;4.226;2023-10-19T01:48:59;17.20;99.90
20714;DHT22;10518;50.742;4.226;2023-10-19T01:51:28;17.10;99.90
20714;DHT22;10518;50.742;4.226;2023-10-19T01:53:55;17.20;99.90
20714;DHT22;10518;50.742;4.226;2023-10-19T01:56:22;17.00;99.90
20714;DHT22;10518;50.742;4.226;2023-10-19T01:58:48;17.00;99.90
20714;DHT22;10518;50.742;4.226;2023-10-19T02:01:15;17.00;99.90
20714;DHT22;10518;50.742;4.226;2023-10-19T02:03:47;17.00;99.90
20714;DHT22;10518;50.742;4.226;2023-10-19T02:06:14;17.00;99.90
20714;DHT22;10518;50.742;4.226;2023-10-19T02:08:40;16.80;99.90
20714;DHT22;10518;50.742;4.226;2023-10-19T02:11:06;16.90;99.90
20714;DHT22;10518;50.742;4.226;2023-10-19T02:13:42;16.80;99.90
20714;DHT22;10518;50.742;4.226;2023-10-19T02:16:09;16.90;99.90
20714;DHT22;10518;50.742;4.226;2023-10-19T02:18:34;17.00;99.90
20714;DHT22;10518;50.742;4.226;2023-10-19T02:21:01;17.00;99.90
20714;DHT22;10518;50.742;4.226;2023-10-19T02:23:30;17.20;99.90
20714;DHT22;10518;50.742;4.226;2023-10-19T02:25:57;17.30;99.90
20714;DHT22;10518;50.742;4.226;2023-10-19T02:28:23;17.10;99.90
20714;DHT22;10518;50.742;4.226;2023-10-19T02:30:55;17.00;99.90
20714;DHT22;10518;50.742;4.226;2023-10-19T02:33:20;16.80;99.90
20714;DHT22;10518;50.742;4.226;2023-10-19T02:35:46;16.60;99.90
20714;DHT22;10518;50.742;4.226;2023-10-19T02:38:13;16.50;99.90
20714;DHT22;10518;50.742;4.226;2023-10-19T02:40:39;16.60;99.90
20714;DHT22;10518;50.742;4.226;2023-10-19T02:43:04;16.60;99.90
20714;DHT22;10518;50.742;4.226;2023-10-19T02:45:31;16.50;99.90
20714;DHT22;10518;50.742;4.226;2023-10-19T02:47:58;16.40;99.90
20714;DHT22;10518;50.742;4.226;2023-10-19T02:50:24;16.40;99.90
20714;DHT22;10518;50.742;4.226;2023-10-19T02:52:52;16.40;99.90
20714;DHT22;10518;50.742;4.226;2023-10-19T02:55:19;16.30;99.90
20714;DHT22;10518;50.742;4.226;2023-10-19T02:57:48;16.20;99.90
20714;DHT22;10518;50.742;4.226;2023-10-19T03:00:15;16.20;99.90
20714;DHT22;10518;50.742;4.226;2023-10-19T03:02:46;16.40;99.90
20714;DHT22;10518;50.742;4.226;2023-10-19T03:05:12;16.60;99.90
20714;DHT22;10518;50.742;4.226;2023-10-19T03:07:42;16.50;99.90
20714;DHT22;10518;50.742;4.226;2023-10-19T03:10:11;16.30;99.90
20714;DHT22;10518;50.742;4.226;2023-10-19T03:12:51;16.30;99.90
20714;DHT22;10518;50.742;4.226;2023-10-19T03:15:17;16.30;99.90
20714;DHT22;10518;50.742;4.226;2023-10-19T03:17:46;16.30;99.90
20714;DHT22;10518;50.742;4.226;2023-10-19T03:20:12;16.40;99.90
20714;DHT22;10518;50.742;4.226;2023-10-19T03:22:37;16.60;99.90
20714;DHT22;10518;50.742;4.226;2023-10-19T03:25:06;16.50;99.90
20714;DHT22;10518;50.742;4.226;2023-10-19T03:27:51;16.60;99.90
20714;DHT22;10518;50.742;4.226;2023-10-19T03:30:16;16.80;99.90
20714;DHT22;10518;50.742;4.226;2023-10-19T03:32:44;16.60;99.90
20714;DHT22;10518;50.742;4.226;2023-10-19T03:35:10;16.70;99.90
20714;DHT22;10518;50.742;4.226;2023-10-19T03:37:40;16.60;99.90
20714;DHT22;10518;50.742;4.226;2023-10-19T03:40:07;16.60;99.90
20714;DHT22;10518;50.742;4.226;2023-10-19T03:42:35;16.60;99.90
20714;DHT22;10518;50.742;4.226;2023-10-19T03:45:07;16.60;99.90
20714;DHT22;10518;50.742;4.226;2023-10-19T03:47:39;16.70;99.90
20714;DHT22;10518;50.742;4.226;2023-10-19T03:50:05;16.80;99.90
20714;DHT22;10518;50.742;4.226;2023-10-19T03:52:39;16.70;99.90
20714;DHT22;10518;50.742;4.226;2023-10-19T03:55:06;16.90;99.90
20714;DHT22;10518;50.742;4.226;2023-10-19T03:57:37;16.80;99.90
20714;DHT22;10518;50.742;4.226;2023-10-19T04:00:07;16.70;99.90
20714;DHT22;10518;50.742;4.226;2023-10-19T04:02:41;16.70;99.90
20714;DHT22;10518;50.742;4.226;2023-10-19T04:05:08;16.70;99.90
20714;DHT22;10518;50.742;4.226;2023-10-19T04:07:35;16.60;99.90
20714;DHT22;10518;50.742;4.226;2023-10-19T04:10:01;16.50;99.90
20714;DHT22;10518;50.742;4.226;2023-10-19T04:12:34;16.50;99.90
20714;DHT22;10518;50.742;4.226;2023-10-19T04:15:06;16.60;99.90
20714;DHT22;10518;50.742;4.226;2023-10-19T04:17:46;16.70;99.90
20714;DHT22;10518;50.742;4.226;2023-10-19T04:20:15;16.80;99.90
20714;DHT22;10518;50.742;4.226;2023-10-19T04:22:45;16.70;99.90
20714;DHT22;10518;50.742;4.226;2023-10-19T04:25:11;16.70;99.90
20714;DHT22;10518;50.742;4.226;2023-10-19T04:27:38;16.70;99.90
20714;DHT22;10518;50.742;4.226;2023-10-19T04:30:14;16.80;99.90
20714;DHT22;10518;50.742;4.226;2023-10-19T04:32:50;16.70;99.90
20714;DHT22;10518;50.742;4.226;2023-10-19T04:35:16;16.70;99.90
20714;DHT22;10518;50.742;4.226;2023-10-19T04:37:49;16.60;99.90
20714;DHT22;10518;50.742;4.226;2023-10-19T04:40:16;16.90;99.90
20714;DHT22;10518;50.742;4.226;2023-10-19T04:42:42;16.90;99.90
20714;DHT22;10518;50.742;4.226;2023-10-19T04:45:08;16.80;99.90
20714;DHT22;10518;50.742;4.226;2023-10-19T04:47:34;16.80;99.90
20714;DHT22;10518;50.742;4.226;2023-10-19T04:50:01;16.80;99.90
20714;DHT22;10518;50.742;4.226;2023-10-19T04:52:28;16.70;99.90
20714;DHT22;10518;50.742;4.226;2023-10-19T04:54:54;16.80;99.90
20714;DHT22;10518;50.742;4.226;2023-10-19T04:57:20;16.70;99.90
20714;DHT22;10518;50.742;4.226;2023-10-19T04:59:46;16.80;99.90
20714;DHT22;10518;50.742;4.226;2023-10-19T05:02:12;16.80;99.90
20714;DHT22;10518;50.742;4.226;2023-10-19T05:04:38;16.80;99.90
20714;DHT22;10518;50.742;4.226;2023-10-19T05:07:04;16.80;99.90
20714;DHT22;10518;50.742;4.226;2023-10-19T05:09:31;16.90;99.90
20714;DHT22;10518;50.742;4.226;2023-10-19T05:11:57;16.90;99.90
20714;DHT22;10518;50.742;4.226;2023-10-19T05:14:23;16.80;99.90
20714;DHT22;10518;50.742;4.226;2023-10-19T05:16:48;16.90;99.90
20714;DHT22;10518;50.742;4.226;2023-10-19T05:19:15;17.00;99.90
20714;DHT22;10518;50.742;4.226;2023-10-19T05:21:40;17.00;99.90
20714;DHT22;10518;50.742;4.226;2023-10-19T05:24:06;16.90;99.90
20714;DHT22;10518;50.742;4.226;2023-10-19T05:26:35;17.00;99.90
20714;DHT22;10518;50.742;4.226;2023-10-19T05:29:01;16.90;99.90
20714;DHT22;10518;50.742;4.226;2023-10-19T05:31:27;16.90;99.90
20714;DHT22;10518;50.742;4.226;2023-10-19T05:33:53;16.90;99.90
20714;DHT22;10518;50.742;4.226;2023-10-19T05:36:19;16.90;99.90
20714;DHT22;10518;50.742;4.226;2023-10-19T05:38:45;17.00;99.90
20714;DHT22;10518;50.742;4.226;2023-10-19T05:41:10;16.70;99.90
20714;DHT22;10518;50.742;4.226;2023-10-19T05:43:38;16.70;99.90
20714;DHT22;10518;50.742;4.226;2023-10-19T05:46:03;16.70;99.90
20714;DHT22;10518;50.742;4.226;2023-10-19T05:48:30;16.60;99.90
20714;DHT22;10518;50.742;4.226;2023-10-19T05:50:55;16.70;99.90
20714;DHT22;10518;50.742;4.226;2023-10-19T05:53:21;16.70;99.90
20714;DHT22;10518;50.742;4.226;2023-10-19T05:55:48;16.70;99.90
20714;DHT22;10518;50.742;4.226;2023-10-19T05:58:15;17.00;99.90
20714;DHT22;10518;50.742;4.226;2023-10-19T06:00:40;16.90;99.90
20714;DHT22;10518;50.742;4.226;2023-10-19T06:03:07;17.00;99.90
20714;DHT22;10518;50.742;4.226;2023-10-19T06:05:33;17.10;99.90
20714;DHT22;10518;50.742;4.226;2023-10-19T06:07:59;16.90;99.90
20714;DHT22;10518;50.742;4.226;2023-10-19T06:10:27;16.80;99.90
20714;DHT22;10518;50.742;4.226;2023-10-19T06:12:53;16.60;99.90
20714;DHT22;10518;50.742;4.226;2023-10-19T06:15:20;16.60;99.90
20714;DHT22;10518;50.742;4.226;2023-10-19T06:17:46;16.60;99.90
20714;DHT22;10518;50.742;4.226;2023-10-19T06:20:13;16.60;99.90
20714;DHT22;10518;50.742;4.226;2023-10-19T06:22:58;16.60;99.90
20714;DHT22;10518;50.742;4.226;2023-10-19T06:25:30;16.40;99.90
20714;DHT22;10518;50.742;4.226;2023-10-19T06:27:56;16.40;99.90
20714;DHT22;10518;50.742;4.226;2023-10-19T06:30:23;16.40;99.90
20714;DHT22;10518;50.742;4.226;2023-10-19T06:32:55;16.50;99.90
20714;DHT22;10518;50.742;4.226;2023-10-19T06:35:21;16.80;99.90
20714;DHT22;10518;50.742;4.226;2023-10-19T06:37:47;16.70;99.90
20714;DHT22;10518;50.742;4.226;2023-10-19T06:40:14;16.60;99.90
20714;DHT22;10518;50.742;4.226;2023-10-19T06:42:41;16.70;99.90
20714;DHT22;10518;50.742;4.226;2023-10-19T06:45:07;16.50;99.90
20714;DHT22;10518;50.742;4.226;2023-10-19T06:47:33;16.40;99.90
20714;DHT22;10518;50.742;4.226;2023-10-19T06:50:05;16.40;99.90
20714;DHT22;10518;50.742;4.226;2023-10-19T06:52:33;16.40;99.90
20714;DHT22;10518;50.742;4.226;2023-10-19T06:54:58;16.40;99.90
20714;DHT22;10518;50.742;4.226;2023-10-19T06:57:24;16.50;99.90
20714;DHT22;10518;50.742;4.226;2023-10-19T06:59:49;16.50;99.90
20714;DHT22;10518;50.742;4.226;2023-10-19T07:02:17;16.40;99.90
20714;DHT22;10518;50.742;4.226;2023-10-19T07:04:46;16.50;99.90
20714;DHT22;10518;50.742;4.226;2023-10-19T07:07:12;16.40;99.90
20714;DHT22;10518;50.742;4.226;2023-10-19T07:09:39;16.60;99.90
20714;DHT22;10518;50.742;4.226;2023-10-19T07:12:06;16.50;99.90
20714;DHT22;10518;50.742;4.226;2023-10-19T07:14:33;16.50;99.90
20714;DHT22;10518;50.742;4.226;2023-10-19T07:16:59;16.50;99.90
20714;DHT22;10518;50.742;4.226;2023-10-19T07:19:25;16.60;99.90
20714;DHT22;10518;50.742;4.226;2023-10-19T07:21:50;16.50;99.90
20714;DHT22;10518;50.742;4.226;2023-10-19T07:24:23;16.70;99.90
20714;DHT22;10518;50.742;4.226;2023-10-19T07:26:52;16.80;99.90
20714;DHT22;10518;50.742;4.226;2023-10-19T07:29:33;17.00;99.90
20714;DHT22;10518;50.742;4.226;2023-10-19T07:32:04;17.00;99.90
20714;DHT22;10518;50.742;4.226;2023-10-19T07:34:33;17.20;99.90
20714;DHT22;10518;50.742;4.226;2023-10-19T07:37:00;17.10;99.90
20714;DHT22;10518;50.742;4.226;2023-10-19T07:39:26;17.00;99.90
20714;DHT22;10518;50.742;4.226;2023-10-19T07:41:55;17.00;99.90
20714;DHT22;10518;50.742;4.226;2023-10-19T07:44:22;16.80;99.90
20714;DHT22;10518;50.742;4.226;2023-10-19T07:46:48;16.90;99.90
20714;DHT22;10518;50.742;4.226;2023-10-19T07:49:14;17.00;99.90
20714;DHT22;10518;50.742;4.226;2023-10-19T07:51:49;17.20;99.90
20714;DHT22;10518;50.742;4.226;2023-10-19T07:54:16;17.30;99.90
20714;DHT22;10518;50.742;4.226;2023-10-19T07:56:42;17.30;99.90
20714;DHT22;10518;50.742;4.226;2023-10-19T07:59:09;17.30;99.90
20714;DHT22;10518;50.742;4.226;2023-10-19T08:01:35;17.40;99.90
20714;DHT22;10518;50.742;4.226;2023-10-19T08:04:01;17.80;99.90
20714;DHT22;10518;50.742;4.226;2023-10-19T08:06:27;17.80;99.90
20714;DHT22;10518;50.742;4.226;2023-10-19T08:08:52;17.70;99.90
20714;DHT22;10518;50.742;4.226;2023-10-19T08:11:18;17.70;99.90
20714;DHT22;10518;50.742;4.226;2023-10-19T08:13:44;17.70;99.90
20714;DHT22;10518;50.742;4.226;2023-10-19T08:16:09;17.70;99.90
20714;DHT22;10518;50.742;4.226;2023-10-19T08:18:37;17.50;99.90
20714;DHT22;10518;50.742;4.226;2023-10-19T08:21:03;17.40;99.90
20714;DHT22;10518;50.742;4.226;2023-10-19T08:23:29;17.60;99.90
20714;DHT22;10518;50.742;4.226;2023-10-19T08:25:57;17.40;99.90
20714;DHT22;10518;50.742;4.226;2023-10-19T08:28:22;17.40;99.90
20714;DHT22;10518;50.742;4.226;2023-10-19T08:30:48;17.60;99.90
20714;DHT22;10518;50.742;4.226;2023-10-19T08:33:26;17.40;99.90
20714;DHT22;10518;50.742;4.226;2023-10-19T08:35:53;17.60;99.90
20714;DHT22;10518;50.742;4.226;2023-10-19T08:38:23;17.70;99.90
20714;DHT22;10518;50.742;4.226;2023-10-19T08:40:50;17.70;99.90
20714;DHT22;10518;50.742;4.226;2023-10-19T08:43:17;17.90;99.90
20714;DHT22;10518;50.742;4.226;2023-10-19T08:45:44;17.90;99.90
20714;DHT22;10518;50.742;4.226;2023-10-19T08:48:10;17.90;99.90
20714;DHT22;10518;50.742;4.226;2023-10-19T08:50:36;17.90;99.90
20714;DHT22;10518;50.742;4.226;2023-10-19T08:53:07;17.90;99.90
20714;DHT22;10518;50.742;4.226;2023-10-19T08:55:36;18.00;99.90
20714;DHT22;10518;50.742;4.226;2023-10-19T08:58:01;18.20;99.90
20714;DHT22;10518;50.742;4.226;2023-10-19T09:00:43;18.10;99.90
20714;DHT22;10518;50.742;4.226;2023-10-19T09:03:12;18.10;99.90
20714;DHT22;10518;50.742;4.226;2023-10-19T09:05:40;18.10;99.90
20714;DHT22;10518;50.742;4.226;2023-10-19T09:08:06;18.10;99.90
20714;DHT22;10518;50.742;4.226;2023-10-19T09:10:32;18.20;99.90
20714;DHT22;10518;50.742;4.226;2023-10-19T09:13:01;18.20;99.90
20714;DHT22;10518;50.742;4.226;2023-10-19T09:15:28;18.30;99.90
20714;DHT22;10518;50.742;4.226;2023-10-19T09:20:43;18.40;99.90
20714;DHT22;10518;50.742;4.226;2023-10-19T09:23:19;18.40;99.90
20714;DHT22;10518;50.742;4.226;2023-10-19T09:25:45;18.70;99.90
20714;DHT22;10518;50.742;4.226;2023-10-19T09:28:10;18.70;99.90
20714;DHT22;10518;50.742;4.226;2023-10-19T09:30:39;18.70;99.90
20714;DHT22;10518;50.742;4.226;2023-10-19T09:33:05;18.60;99.90
20714;DHT22;10518;50.742;4.226;2023-10-19T09:35:34;18.80;99.90
20714;DHT22;10518;50.742;4.226;2023-10-19T09:37:59;18.70;99.90
20714;DHT22;10518;50.742;4.226;2023-10-19T09:40:27;18.70;99.90
20714;DHT22;10518;50.742;4.226;2023-10-19T09:42:56;18.80;99.90
20714;DHT22;10518;50.742;4.226;2023-10-19T09:45:27;18.90;99.90
20714;DHT22;10518;50.742;4.226;2023-10-19T09:47:55;19.20;99.90
20714;DHT22;10518;50.742;4.226;2023-10-19T09:50:22;19.20;99.90
20714;DHT22;10518;50.742;4.226;2023-10-19T09:52:48;19.40;99.90
20714;DHT22;10518;50.742;4.226;2023-10-19T09:55:22;19.40;99.90
20714;DHT22;10518;50.742;4.226;2023-10-19T09:57:54;19.60;99.90
20714;DHT22;10518;50.742;4.226;2023-10-19T10:00:20;19.70;99.90
20714;DHT22;10518;50.742;4.226;2023-10-19T10:02:50;19.60;99.90
20714;DHT22;10518;50.742;4.226;2023-10-19T10:05:45;19.50;99.90
20714;DHT22;10518;50.742;4.226;2023-10-19T10:10:45;19.50;99.90
20714;DHT22;10518;50.742;4.226;2023-10-19T10:16:00;19.60;99.90
20714;DHT22;10518;50.742;4.226;2023-10-19T10:18:28;19.50;99.90
20714;DHT22;10518;50.742;4.226;2023-10-19T10:21:14;19.50;99.90
20714;DHT22;10518;50.742;4.226;2023-10-19T10:23:56;19.50;99.90
20714;DHT22;10518;50.742;4.226;2023-10-19T10:26:29;19.50;99.90
20714;DHT22;10518;50.742;4.226;2023-10-19T10:29:21;19.50;99.90
20714;DHT22;10518;50.742;4.226;2023-10-19T10:31:49;19.50;99.90
20714;DHT22;10518;50.742;4.226;2023-10-19T10:37:09;19.50;99.90
20714;DHT22;10518;50.742;4.226;2023-10-19T10:39:38;19.50;99.90
20714;DHT22;10518;50.742;4.226;2023-10-19T10:42:06;19.40;99.90
20714;DHT22;10518;50.742;4.226;2023-10-19T10:44:36;19.60;99.90
20714;DHT22;10518;50.742;4.226;2023-10-19T10:47:05;19.50;99.90
20714;DHT22;10518;50.742;4.226;2023-10-19T10:49:35;19.30;99.90
20714;DHT22;10518;50.742;4.226;2023-10-19T10:52:00;19.30;99.90
20714;DHT22;10518;50.742;4.226;2023-10-19T10:54:26;19.40;99.90
20714;DHT22;10518;50.742;4.226;2023-10-19T10:56:52;19.40;99.90
20714;DHT22;10518;50.742;4.226;2023-10-19T10:59:17;19.30;99.90
20714;DHT22;10518;50.742;4.226;2023-10-19T11:01:43;19.30;99.90
20714;DHT22;10518;50.742;4.226;2023-10-19T11:04:10;19.50;99.90
20714;DHT22;10518;50.742;4.226;2023-10-19T11:09:14;19.40;99.90
20714;DHT22;10518;50.742;4.226;2023-10-19T11:11:44;19.40;99.90
20714;DHT22;10518;50.742;4.226;2023-10-19T11:14:11;19.40;99.90
20714;DHT22;10518;50.742;4.226;2023-10-19T11:16:37;19.40;99.90
20714;DHT22;10518;50.742;4.226;2023-10-19T11:19:05;19.60;99.90
20714;DHT22;10518;50.742;4.226;2023-10-19T11:21:30;19.80;99.90
20714;DHT22;10518;50.742;4.226;2023-10-19T11:23:56;19.70;99.90
20714;DHT22;10518;50.742;4.226;2023-10-19T11:26:24;19.60;99.90
20714;DHT22;10518;50.742;4.226;2023-10-19T11:29:02;19.50;99.90
20714;DHT22;10518;50.742;4.226;2023-10-19T11:31:31;19.40;99.90
20714;DHT22;10518;50.742;4.226;2023-10-19T11:34:07;19.40;99.90
20714;DHT22;10518;50.742;4.226;2023-10-19T11:36:34;19.40;99.90
20714;DHT22;10518;50.742;4.226;2023-10-19T11:39:00;19.60;99.90
20714;DHT22;10518;50.742;4.226;2023-10-19T11:41:25;19.80;99.90
20714;DHT22;10518;50.742;4.226;2023-10-19T11:43:51;19.80;99.90
20714;DHT22;10518;50.742;4.226;2023-10-19T11:46:17;19.80;99.90
20714;DHT22;10518;50.742;4.226;2023-10-19T11:48:52;19.80;99.90
20714;DHT22;10518;50.742;4.226;2023-10-19T11:51:18;19.80;99.90
20714;DHT22;10518;50.742;4.226;2023-10-19T11:53:43;20.20;99.90
20714;DHT22;10518;50.742;4.226;2023-10-19T11:56:11;20.00;99.90
20714;DHT22;10518;50.742;4.226;2023-10-19T11:58:41;19.70;99.90
20714;DHT22;10518;50.742;4.226;2023-10-19T12:01:10;19.70;99.90
20714;DHT22;10518;50.742;4.226;2023-10-19T12:03:39;19.60;99.90
20714;DHT22;10518;50.742;4.226;2023-10-19T12:06:10;19.30;99.90
20714;DHT22;10518;50.742;4.226;2023-10-19T12:08:36;19.20;99.90
20714;DHT22;10518;50.742;4.226;2023-10-19T12:11:03;19.10;99.90
20714;DHT22;10518;50.742;4.226;2023-10-19T12:13:41;19.30;99.90
20714;DHT22;10518;50.742;4.226;2023-10-19T12:16:09;19.40;99.90
20714;DHT22;10518;50.742;4.226;2023-10-19T12:18:38;19.00;99.90
20714;DHT22;10518;50.742;4.226;2023-10-19T12:21:04;19.00;99.90
20714;DHT22;10518;50.742;4.226;2023-10-19T12:23:33;19.20;99.90
20714;DHT22;10518;50.742;4.226;2023-10-19T12:25:59;19.20;99.90
20714;DHT22;10518;50.742;4.226;2023-10-19T12:28:29;19.40;99.90
20714;DHT22;10518;50.742;4.226;2023-10-19T12:30:54;19.20;99.90
20714;DHT22;10518;50.742;4.226;2023-10-19T12:33:21;19.50;99.90
20714;DHT22;10518;50.742;4.226;2023-10-19T12:35:47;19.60;99.90
20714;DHT22;10518;50.742;4.226;2023-10-19T12:38:24;19.90;99.90
20714;DHT22;10518;50.742;4.226;2023-10-19T12:40:51;19.80;99.90
20714;DHT22;10518;50.742;4.226;2023-10-19T12:43:17;19.60;99.90
20714;DHT22;10518;50.742;4.226;2023-10-19T12:45:44;19.60;99.90
20714;DHT22;10518;50.742;4.226;2023-10-19T12:48:16;19.70;99.90
20714;DHT22;10518;50.742;4.226;2023-10-19T12:50:42;19.70;99.90
20714;DHT22;10518;50.742;4.226;2023-10-19T12:53:08;19.70;99.90
20714;DHT22;10518;50.742;4.226;2023-10-19T12:55:35;19.80;99.90
20714;DHT22;10518;50.742;4.226;2023-10-19T12:58:06;19.70;99.90
20714;DHT22;10518;50.742;4.226;2023-10-19T13:00:35;19.70;99.90
20714;DHT22;10518;50.742;4.226;2023-10-19T13:03:04;19.70;99.90
20714;DHT22;10518;50.742;4.226;2023-10-19T13:05:34;19.60;99.90
20714;DHT22;10518;50.742;4.226;2023-10-19T13:08:01;19.70;99.90
20714;DHT22;10518;50.742;4.226;2023-10-19T13:10:31;19.60;99.90
20714;DHT22;10518;50.742;4.226;2023-10-19T13:13:01;19.40;99.90
20714;DHT22;10518;50.742;4.226;2023-10-19T13:15:33;19.40;99.90
20714;DHT22;10518;50.742;4.226;2023-10-19T13:18:00;19.60;99.90
20714;DHT22;10518;50.742;4.226;2023-10-19T13:20:27;19.50;99.90
20714;DHT22;10518;50.742;4.226;2023-10-19T13:22:59;19.60;99.90
20714;DHT22;10518;50.742;4.226;2023-10-19T13:25:25;19.70;99.90
20714;DHT22;10518;50.742;4.226;2023-10-19T13:28:09;20.00;99.90
20714;DHT22;10518;50.742;4.226;2023-10-19T13:30:42;20.10;99.90
20714;DHT22;10518;50.742;4.226;2023-10-19T13:33:09;20.00;99.90
20714;DHT22;10518;50.742;4.226;2023-10-19T13:35:38;20.00;99.90
20714;DHT22;10518;50.742;4.226;2023-10-19T13:38:05;19.90;99.90
20714;DHT22;10518;50.742;4.226;2023-10-19T13:40:32;19.90;99.90
20714;DHT22;10518;50.742;4.226;2023-10-19T13:42:58;19.90;99.90
20714;DHT22;10518;50.742;4.226;2023-10-19T13:45:24;19.60;99.90
20714;DHT22;10518;50.742;4.226;2023-10-19T13:47:50;19.60;99.90
20714;DHT22;10518;50.742;4.226;2023-10-19T13:50:21;19.70;99.90
20714;DHT22;10518;50.742;4.226;2023-10-19T13:52:52;19.60;99.90
20714;DHT22;10518;50.742;4.226;2023-10-19T13:55:19;19.70;99.90
20714;DHT22;10518;50.742;4.226;2023-10-19T13:57:46;19.80;99.90
20714;DHT22;10518;50.742;4.226;2023-10-19T14:00:15;19.70;99.90
20714;DHT22;10518;50.742;4.226;2023-10-19T14:02:56;19.80;99.90
20714;DHT22;10518;50.742;4.226;2023-10-19T14:05:23;19.70;99.90
20714;DHT22;10518;50.742;4.226;2023-10-19T14:07:50;19.70;99.90
20714;DHT22;10518;50.742;4.226;2023-10-19T14:10:17;19.80;99.90
20714;DHT22;10518;50.742;4.226;2023-10-19T14:12:45;19.90;99.90
20714;DHT22;10518;50.742;4.226;2023-10-19T14:15:16;20.00;99.90
20714;DHT22;10518;50.742;4.226;2023-10-19T14:17:47;20.00;99.90
20714;DHT22;10518;50.742;4.226;2023-10-19T14:20:14;19.80;99.90
20714;DHT22;10518;50.742;4.226;2023-10-19T14:22:46;19.70;99.90
20714;DHT22;10518;50.742;4.226;2023-10-19T14:25:12;19.60;99.90
20714;DHT22;10518;50.742;4.226;2023-10-19T14:27:42;19.60;99.90
20714;DHT22;10518;50.742;4.226;2023-10-19T14:30:10;19.80;99.90
20714;DHT22;10518;50.742;4.226;2023-10-19T14:32:40;19.80;99.90
20714;DHT22;10518;50.742;4.226;2023-10-19T14:35:10;19.80;99.90
20714;DHT22;10518;50.742;4.226;2023-10-19T14:37:44;19.80;99.90
20714;DHT22;10518;50.742;4.226;2023-10-19T14:40:20;19.80;99.90
20714;DHT22;10518;50.742;4.226;2023-10-19T14:42:47;19.70;99.90
20714;DHT22;10518;50.742;4.226;2023-10-19T14:45:14;19.80;99.90
20714;DHT22;10518;50.742;4.226;2023-10-19T14:47:46;19.80;99.90
20714;DHT22;10518;50.742;4.226;2023-10-19T14:50:14;19.70;99.90
20714;DHT22;10518;50.742;4.226;2023-10-19T14:52:46;19.70;99.90
20714;DHT22;10518;50.742;4.226;2023-10-19T14:55:12;19.70;99.90
20714;DHT22;10518;50.742;4.226;2023-10-19T14:57:41;19.70;99.90
20714;DHT22;10518;50.742;4.226;2023-10-19T15:00:09;19.70;99.90
20714;DHT22;10518;50.742;4.226;2023-10-19T15:02:44;19.50;99.90
20714;DHT22;10518;50.742;4.226;2023-10-19T15:05:13;19.60;99.90
20714;DHT22;10518;50.742;4.226;2023-10-19T15:07:42;19.60;99.90
20714;DHT22;10518;50.742;4.226;2023-10-19T15:10:11;19.70;99.90
20714;DHT22;10518;50.742;4.226;2023-10-19T15:12:38;19.70;99.90
20714;DHT22;10518;50.742;4.226;2023-10-19T15:15:05;19.70;99.90
20714;DHT22;10518;50.742;4.226;2023-10-19T15:17:31;19.70;99.90
20714;DHT22;10518;50.742;4.226;2023-10-19T15:19:57;19.60;99.90
20714;DHT22;10518;50.742;4.226;2023-10-19T15:22:24;19.60;99.90
20714;DHT22;10518;50.742;4.226;2023-10-19T15:24:52;19.60;99.90
20714;DHT22;10518;50.742;4.226;2023-10-19T15:27:18;19.60;99.90
20714;DHT22;10518;50.742;4.226;2023-10-19T15:29:44;19.40;99.90
20714;DHT22;10518;50.742;4.226;2023-10-19T15:32:10;19.50;99.90
20714;DHT22;10518;50.742;4.226;2023-10-19T15:34:36;19.70;99.90
20714;DHT22;10518;50.742;4.226;2023-10-19T15:37:02;19.70;99.90
20714;DHT22;10518;50.742;4.226;2023-10-19T15:39:27;19.60;99.90
20714;DHT22;10518;50.742;4.226;2023-10-19T15:41:53;19.60;99.90
20714;DHT22;10518;50.742;4.226;2023-10-19T15:44:19;19.80;99.90
20714;DHT22;10518;50.742;4.226;2023-10-19T15:46:44;19.90;99.90
20714;DHT22;10518;50.742;4.226;2023-10-19T15:49:14;19.80;99.90
20714;DHT22;10518;50.742;4.226;2023-10-19T15:51:39;19.60;99.90
20714;DHT22;10518;50.742;4.226;2023-10-19T15:54:06;19.60;99.90
20714;DHT22;10518;50.742;4.226;2023-10-19T15:56:32;19.50;99.90
20714;DHT22;10518;50.742;4.226;2023-10-19T15:58:58;19.30;99.90